ELY082 VTBS-LLBG
Flight info
| Callsign | ELY082 |
|---|---|
| Flight time | N/A |
| Altitude | 34000 |
| Route | PASTO1G PASTO L301 DWI P762 PPB P761 IDASO/N0505F360 P761 MMV/N0521F280 L875 VUTAS/N0499F370 UT383 UNRED/N0497F380 UT383 HARGA/N0492F390 UW885 ARSHI/N0496F380 UW885 DWA DCT XADOX DCT SETIT UR780 ASM/N0493F390 G650 RASKA/N0496F380 T513 EGMEG/N0493F390 T513 JDW/N0491F400 L677 WEJ M449 MUNRA DCT QAA DCT OSAMA N134 SALAM |
| Aircraft | B789/H-SDE1E2E3FGHIJ2J3J4J5M1RWXY/LB1D1 |
Departure
| Time | N/A |
|---|---|
| Airport | Suvarnabhumi Airport (VTBS) |
Arrival
| Time | 2026-05-08 08:21 |
|---|---|
| Airport | Ben Gurion International Airport (LLBG) |
| Time | Latitude | Longitude | Altitude | Speed | Heading |
|---|---|---|---|---|---|
| 2026-05-08 05:28 | 11.74965 | 40.77513 | 34755 ft | 496 kts | 332° |
| 2026-05-08 05:28 | 11.78052 | 40.75933 | 35004 ft | 496 kts | 332° |
| 2026-05-08 05:28 | 11.81140 | 40.74352 | 35265 ft | 495 kts | 332° |
| 2026-05-08 05:29 | 11.84221 | 40.72774 | 35523 ft | 495 kts | 332° |
| 2026-05-08 05:29 | 11.87299 | 40.71198 | 35781 ft | 495 kts | 332° |
| 2026-05-08 05:29 | 11.90381 | 40.69619 | 36014 ft | 495 kts | 332° |
| 2026-05-08 05:29 | 11.93453 | 40.68044 | 36252 ft | 495 kts | 332° |
| 2026-05-08 05:30 | 11.96530 | 40.66467 | 36493 ft | 494 kts | 332° |
| 2026-05-08 05:30 | 11.99602 | 40.64892 | 36717 ft | 494 kts | 332° |
| 2026-05-08 05:30 | 12.02677 | 40.63314 | 36911 ft | 495 kts | 332° |
| 2026-05-08 05:30 | 12.05752 | 40.61736 | 37118 ft | 495 kts | 332° |
| 2026-05-08 05:31 | 12.08828 | 40.60158 | 37341 ft | 494 kts | 332° |
| 2026-05-08 05:31 | 12.11900 | 40.58582 | 37567 ft | 494 kts | 332° |
| 2026-05-08 05:31 | 12.14979 | 40.57001 | 37767 ft | 494 kts | 332° |
| 2026-05-08 05:31 | 12.18043 | 40.55427 | 37918 ft | 495 kts | 332° |
| 2026-05-08 05:32 | 12.21139 | 40.53836 | 37911 ft | 498 kts | 332° |
| 2026-05-08 05:32 | 12.27263 | 40.50690 | 37902 ft | 493 kts | 332° |
| 2026-05-08 05:33 | 12.33383 | 40.47542 | 37903 ft | 492 kts | 331° |
| 2026-05-08 05:33 | 12.39506 | 40.44392 | 37907 ft | 493 kts | 331° |
| 2026-05-08 05:34 | 12.45643 | 40.41234 | 37910 ft | 494 kts | 331° |
| 2026-05-08 05:34 | 12.51773 | 40.38002 | 37910 ft | 495 kts | 330° |
| 2026-05-08 05:35 | 12.57894 | 40.34765 | 37911 ft | 494 kts | 330° |
| 2026-05-08 05:35 | 12.63967 | 40.31565 | 37912 ft | 493 kts | 330° |
| 2026-05-08 05:36 | 12.70063 | 40.28338 | 37913 ft | 492 kts | 330° |
| 2026-05-08 05:36 | 12.76148 | 40.25126 | 37917 ft | 492 kts | 330° |
| 2026-05-08 05:37 | 12.82201 | 40.21921 | 37919 ft | 494 kts | 330° |
| 2026-05-08 05:37 | 12.88316 | 40.18687 | 37940 ft | 495 kts | 330° |
| 2026-05-08 05:38 | 12.94450 | 40.15438 | 37936 ft | 496 kts | 330° |
| 2026-05-08 05:38 | 13.00583 | 40.12189 | 37932 ft | 495 kts | 329° |
| 2026-05-08 05:39 | 13.06689 | 40.08952 | 37945 ft | 493 kts | 329° |
| 2026-05-08 05:39 | 13.12772 | 40.05725 | 37934 ft | 492 kts | 329° |
| 2026-05-08 05:40 | 13.18862 | 40.02493 | 37960 ft | 493 kts | 329° |
| 2026-05-08 05:40 | 13.24971 | 39.99249 | 37971 ft | 495 kts | 329° |
| 2026-05-08 05:41 | 13.31050 | 39.96020 | 37967 ft | 494 kts | 329° |
| 2026-05-08 05:41 | 13.37159 | 39.92772 | 37990 ft | 493 kts | 329° |
| 2026-05-08 05:42 | 13.43254 | 39.89530 | 37991 ft | 492 kts | 329° |
| 2026-05-08 05:42 | 13.49357 | 39.86281 | 37994 ft | 494 kts | 329° |
| 2026-05-08 05:43 | 13.55464 | 39.83030 | 38024 ft | 494 kts | 329° |
| 2026-05-08 05:43 | 13.61555 | 39.79785 | 38027 ft | 493 kts | 329° |
| 2026-05-08 05:44 | 13.67592 | 39.76565 | 38017 ft | 492 kts | 329° |
| 2026-05-08 05:44 | 13.73676 | 39.73320 | 38042 ft | 492 kts | 329° |
| 2026-05-08 05:45 | 13.79744 | 39.70081 | 38041 ft | 491 kts | 329° |
| 2026-05-08 05:45 | 13.85824 | 39.66834 | 38072 ft | 491 kts | 328° |
| 2026-05-08 05:46 | 13.91887 | 39.63593 | 38071 ft | 491 kts | 328° |
| 2026-05-08 05:46 | 13.97942 | 39.60356 | 38069 ft | 490 kts | 328° |
| 2026-05-08 05:47 | 14.03989 | 39.57120 | 38074 ft | 490 kts | 328° |
| 2026-05-08 05:47 | 14.10015 | 39.53894 | 38068 ft | 491 kts | 328° |
| 2026-05-08 05:48 | 14.16081 | 39.50645 | 38070 ft | 492 kts | 328° |
| 2026-05-08 05:48 | 14.22158 | 39.47389 | 38068 ft | 491 kts | 328° |
| 2026-05-08 05:49 | 14.27234 | 39.44664 | 38069 ft | 491 kts | 328° |
| 2026-05-08 05:49 | 14.33310 | 39.41404 | 38070 ft | 493 kts | 328° |
| 2026-05-08 05:50 | 14.39409 | 39.38130 | 38065 ft | 493 kts | 328° |
| 2026-05-08 05:50 | 14.45485 | 39.34866 | 38064 ft | 492 kts | 328° |
| 2026-05-08 05:51 | 14.51511 | 39.31626 | 38048 ft | 490 kts | 328° |
| 2026-05-08 05:51 | 14.57552 | 39.28375 | 38031 ft | 491 kts | 328° |
| 2026-05-08 05:52 | 14.63623 | 39.25107 | 38039 ft | 492 kts | 328° |
| 2026-05-08 05:52 | 14.69700 | 39.21834 | 38038 ft | 493 kts | 328° |
| 2026-05-08 05:53 | 14.75784 | 39.18554 | 38024 ft | 493 kts | 328° |
| 2026-05-08 05:53 | 14.81863 | 39.15276 | 38023 ft | 492 kts | 328° |
| 2026-05-08 05:54 | 14.87932 | 39.12001 | 38021 ft | 491 kts | 328° |
| 2026-05-08 05:54 | 14.93986 | 39.08731 | 38010 ft | 490 kts | 328° |
| 2026-05-08 05:55 | 15.00025 | 39.05468 | 38035 ft | 490 kts | 328° |
| 2026-05-08 05:55 | 15.06036 | 39.02217 | 38022 ft | 490 kts | 328° |
| 2026-05-08 05:56 | 15.12087 | 38.98944 | 38026 ft | 491 kts | 327° |
| 2026-05-08 05:56 | 15.18142 | 38.95665 | 38028 ft | 490 kts | 327° |
| 2026-05-08 05:57 | 15.24187 | 38.92396 | 38021 ft | 491 kts | 329° |
| 2026-05-08 05:57 | 15.27383 | 38.91104 | 38049 ft | 497 kts | 340° |
| 2026-05-08 05:57 | 15.30795 | 38.90395 | 38059 ft | 504 kts | 350° |
| 2026-05-08 05:58 | 15.37890 | 38.90410 | 38020 ft | 512 kts | 358° |
| 2026-05-08 05:58 | 15.45014 | 38.90678 | 38004 ft | 513 kts | 358° |
| 2026-05-08 05:59 | 15.52159 | 38.90929 | 38009 ft | 514 kts | 358° |
| 2026-05-08 05:59 | 15.59280 | 38.91188 | 37990 ft | 509 kts | 358° |
| 2026-05-08 06:00 | 15.66390 | 38.91441 | 37984 ft | 513 kts | 357° |
| 2026-05-08 06:00 | 15.73539 | 38.91699 | 37983 ft | 514 kts | 357° |
| 2026-05-08 06:01 | 15.80706 | 38.91956 | 37977 ft | 516 kts | 357° |
| 2026-05-08 06:01 | 15.87837 | 38.92213 | 37967 ft | 515 kts | 357° |
| 2026-05-08 06:02 | 15.94997 | 38.92471 | 37954 ft | 514 kts | 357° |
| 2026-05-08 06:02 | 16.02155 | 38.92729 | 37946 ft | 516 kts | 357° |
| 2026-05-08 06:03 | 16.09331 | 38.92989 | 37938 ft | 516 kts | 357° |
| 2026-05-08 06:03 | 16.16499 | 38.93247 | 37937 ft | 515 kts | 357° |
| 2026-05-08 06:04 | 16.23683 | 38.93507 | 37942 ft | 516 kts | 357° |
| 2026-05-08 06:04 | 16.30823 | 38.93764 | 37931 ft | 516 kts | 357° |
| 2026-05-08 06:05 | 16.38014 | 38.94025 | 37929 ft | 517 kts | 357° |
| 2026-05-08 06:05 | 16.45213 | 38.94285 | 37927 ft | 518 kts | 357° |
| 2026-05-08 06:06 | 16.52424 | 38.94546 | 37919 ft | 518 kts | 357° |
| 2026-05-08 06:06 | 16.59621 | 38.94808 | 37914 ft | 517 kts | 357° |
| 2026-05-08 06:07 | 16.66794 | 38.95068 | 37905 ft | 515 kts | 357° |
| 2026-05-08 06:07 | 16.73967 | 38.95328 | 37920 ft | 516 kts | 357° |
| 2026-05-08 06:08 | 16.81159 | 38.95589 | 37921 ft | 519 kts | 357° |
| 2026-05-08 06:08 | 16.88388 | 38.95853 | 37921 ft | 520 kts | 357° |
| 2026-05-08 06:09 | 16.95623 | 38.96116 | 37918 ft | 519 kts | 357° |
| 2026-05-08 06:09 | 17.02839 | 38.96379 | 37916 ft | 518 kts | 357° |
| 2026-05-08 06:10 | 17.10007 | 38.96640 | 37904 ft | 517 kts | 357° |
| 2026-05-08 06:10 | 17.17196 | 38.96902 | 37897 ft | 516 kts | 357° |
| 2026-05-08 06:11 | 17.24385 | 38.97164 | 37903 ft | 518 kts | 357° |
| 2026-05-08 06:11 | 17.31604 | 38.97428 | 37912 ft | 520 kts | 356° |
| 2026-05-08 06:12 | 17.38854 | 38.97693 | 37911 ft | 522 kts | 356° |
| 2026-05-08 06:12 | 17.46067 | 38.97957 | 37911 ft | 521 kts | 356° |
| 2026-05-08 06:13 | 17.53300 | 38.98213 | 37910 ft | 519 kts | 356° |
| 2026-05-08 06:13 | 17.60532 | 38.98474 | 37896 ft | 520 kts | 356° |
| 2026-05-08 06:14 | 17.67782 | 38.98733 | 37897 ft | 522 kts | 356° |
| 2026-05-08 06:14 | 17.75054 | 38.98995 | 37908 ft | 523 kts | 356° |
| 2026-05-08 06:15 | 17.82334 | 38.99257 | 37914 ft | 523 kts | 356° |
| 2026-05-08 06:15 | 17.89610 | 38.99518 | 37899 ft | 523 kts | 356° |
| 2026-05-08 06:16 | 17.96889 | 38.99781 | 37895 ft | 523 kts | 356° |
| 2026-05-08 06:16 | 18.04114 | 39.00041 | 37893 ft | 523 kts | 356° |
| 2026-05-08 06:17 | 18.15049 | 39.00435 | 37907 ft | 525 kts | 356° |
| 2026-05-08 06:17 | 18.22375 | 39.00838 | 37907 ft | 527 kts | 356° |
| 2026-05-08 06:18 | 18.29694 | 39.01188 | 37910 ft | 526 kts | 358° |
| 2026-05-08 06:18 | 18.37011 | 39.01627 | 37878 ft | 527 kts | 357° |
| 2026-05-08 06:19 | 18.44327 | 39.02009 | 37902 ft | 528 kts | 357° |
| 2026-05-08 06:19 | 18.51680 | 39.02429 | 37908 ft | 529 kts | 357° |
| 2026-05-08 06:20 | 18.59027 | 39.02829 | 37906 ft | 528 kts | 357° |
| 2026-05-08 06:20 | 18.66364 | 39.03239 | 37884 ft | 528 kts | 357° |
| 2026-05-08 06:21 | 18.73700 | 39.03644 | 37883 ft | 528 kts | 357° |
| 2026-05-08 06:21 | 18.80999 | 39.04050 | 37882 ft | 528 kts | 357° |
| 2026-05-08 06:22 | 18.88341 | 39.04458 | 37904 ft | 529 kts | 357° |
| 2026-05-08 06:22 | 18.95707 | 39.04867 | 37899 ft | 530 kts | 357° |
| 2026-05-08 06:23 | 19.03079 | 39.05277 | 37896 ft | 531 kts | 357° |
| 2026-05-08 06:23 | 19.10449 | 39.05653 | 37886 ft | 527 kts | 351° |
| 2026-05-08 06:24 | 19.14065 | 39.05292 | 37919 ft | 515 kts | 341° |
| 2026-05-08 06:24 | 19.17475 | 39.04394 | 37921 ft | 511 kts | 337° |
| 2026-05-08 06:24 | 19.24445 | 39.02430 | 37903 ft | 514 kts | 338° |
| 2026-05-08 06:25 | 19.31341 | 39.00457 | 37893 ft | 513 kts | 337° |
| 2026-05-08 06:25 | 19.38237 | 38.98495 | 37897 ft | 512 kts | 337° |
| 2026-05-08 06:26 | 19.45075 | 38.96542 | 37890 ft | 513 kts | 337° |
| 2026-05-08 06:26 | 19.51961 | 38.94576 | 37893 ft | 513 kts | 337° |
| 2026-05-08 06:27 | 19.58858 | 38.92605 | 37895 ft | 513 kts | 337° |
| 2026-05-08 06:27 | 19.65748 | 38.90633 | 37893 ft | 514 kts | 337° |
| 2026-05-08 06:28 | 19.72666 | 38.88653 | 37900 ft | 515 kts | 337° |
| 2026-05-08 06:28 | 19.79593 | 38.86667 | 37898 ft | 515 kts | 337° |
| 2026-05-08 06:29 | 19.86519 | 38.84681 | 37896 ft | 516 kts | 337° |
| 2026-05-08 06:29 | 19.93460 | 38.82688 | 37895 ft | 516 kts | 337° |
| 2026-05-08 06:30 | 20.00386 | 38.80698 | 37875 ft | 515 kts | 337° |
| 2026-05-08 06:30 | 20.07296 | 38.78710 | 37881 ft | 514 kts | 337° |
| 2026-05-08 06:31 | 20.14148 | 38.76738 | 37877 ft | 513 kts | 337° |
| 2026-05-08 06:31 | 20.21048 | 38.74748 | 37877 ft | 514 kts | 337° |
| 2026-05-08 06:32 | 20.26847 | 38.73076 | 37909 ft | 515 kts | 337° |
| 2026-05-08 06:32 | 20.33727 | 38.71091 | 37891 ft | 516 kts | 337° |
| 2026-05-08 06:33 | 20.40647 | 38.69092 | 37894 ft | 515 kts | 337° |
| 2026-05-08 06:33 | 20.47552 | 38.67094 | 37890 ft | 514 kts | 337° |
| 2026-05-08 06:34 | 20.54438 | 38.65101 | 37899 ft | 513 kts | 337° |
| 2026-05-08 06:34 | 20.61338 | 38.63103 | 37886 ft | 512 kts | 337° |
| 2026-05-08 06:35 | 20.68207 | 38.61110 | 37881 ft | 512 kts | 337° |
| 2026-05-08 06:35 | 20.75086 | 38.59113 | 37883 ft | 513 kts | 337° |
| 2026-05-08 06:36 | 20.82200 | 38.57838 | 37893 ft | 530 kts | 355° |
| 2026-05-08 06:36 | 20.85915 | 38.58137 | 37912 ft | 541 kts | 6° |
| 2026-05-08 06:36 | 20.89593 | 38.59124 | 37919 ft | 550 kts | 17° |
| 2026-05-08 06:37 | 20.93103 | 38.60796 | 37921 ft | 555 kts | 28° |
| 2026-05-08 06:37 | 20.96418 | 38.62935 | 37905 ft | 556 kts | 28° |
| 2026-05-08 06:37 | 21.02960 | 38.67225 | 37901 ft | 554 kts | 29° |
| 2026-05-08 06:38 | 21.09543 | 38.71556 | 37884 ft | 556 kts | 28° |
| 2026-05-08 06:38 | 21.16155 | 38.75900 | 37875 ft | 557 kts | 29° |
| 2026-05-08 06:39 | 21.22770 | 38.80259 | 37884 ft | 557 kts | 28° |
| 2026-05-08 06:39 | 21.29334 | 38.84583 | 37885 ft | 557 kts | 28° |
| 2026-05-08 06:40 | 21.35943 | 38.88946 | 37871 ft | 558 kts | 28° |
| 2026-05-08 06:40 | 21.42565 | 38.93319 | 37870 ft | 559 kts | 29° |
| 2026-05-08 06:41 | 21.49205 | 38.97711 | 37868 ft | 560 kts | 29° |
| 2026-05-08 06:41 | 21.55838 | 39.02101 | 37859 ft | 560 kts | 29° |
| 2026-05-08 06:42 | 21.62490 | 39.06482 | 37853 ft | 559 kts | 24° |
| 2026-05-08 06:42 | 21.66015 | 39.08166 | 37893 ft | 551 kts | 12° |
| 2026-05-08 06:42 | 21.69704 | 39.09159 | 37896 ft | 543 kts | 1° |
| 2026-05-08 06:43 | 21.77084 | 39.09130 | 37901 ft | 520 kts | 340° |
| 2026-05-08 06:43 | 21.80545 | 39.08187 | 37905 ft | 506 kts | 330° |
| 2026-05-08 06:43 | 21.83760 | 39.06832 | 37882 ft | 503 kts | 329° |
| 2026-05-08 06:44 | 21.90260 | 39.04000 | 37889 ft | 503 kts | 328° |
| 2026-05-08 06:44 | 21.96756 | 39.01148 | 37881 ft | 504 kts | 329° |
| 2026-05-08 06:45 | 22.03250 | 38.98308 | 37870 ft | 502 kts | 328° |
| 2026-05-08 06:45 | 22.09681 | 38.95484 | 37864 ft | 498 kts | 328° |
| 2026-05-08 06:46 | 22.16091 | 38.92668 | 37893 ft | 498 kts | 328° |
| 2026-05-08 06:46 | 22.22515 | 38.89845 | 37897 ft | 498 kts | 328° |
| 2026-05-08 06:47 | 22.28895 | 38.87037 | 37896 ft | 496 kts | 328° |
| 2026-05-08 06:47 | 22.35284 | 38.84223 | 37889 ft | 496 kts | 328° |
| 2026-05-08 06:48 | 22.41672 | 38.81406 | 37894 ft | 496 kts | 328° |
| 2026-05-08 06:48 | 22.48059 | 38.78587 | 37893 ft | 496 kts | 328° |
| 2026-05-08 06:49 | 22.54448 | 38.75764 | 37889 ft | 496 kts | 328° |
| 2026-05-08 06:49 | 22.60850 | 38.72933 | 37902 ft | 496 kts | 328° |
| 2026-05-08 06:50 | 22.67176 | 38.70134 | 37898 ft | 494 kts | 328° |
| 2026-05-08 06:50 | 22.73533 | 38.67313 | 37896 ft | 494 kts | 328° |
| 2026-05-08 06:51 | 22.79912 | 38.64484 | 37900 ft | 495 kts | 328° |
| 2026-05-08 06:51 | 22.86263 | 38.61665 | 37906 ft | 492 kts | 328° |
| 2026-05-08 06:52 | 22.92593 | 38.58848 | 37905 ft | 490 kts | 329° |
| 2026-05-08 06:52 | 22.98891 | 38.56047 | 37904 ft | 489 kts | 328° |
| 2026-05-08 06:53 | 23.05193 | 38.53237 | 37908 ft | 489 kts | 328° |
| 2026-05-08 06:53 | 23.11496 | 38.50428 | 37913 ft | 490 kts | 328° |
| 2026-05-08 06:54 | 23.17772 | 38.47625 | 37933 ft | 490 kts | 329° |
| 2026-05-08 06:54 | 23.24059 | 38.44819 | 37912 ft | 485 kts | 329° |
| 2026-05-08 06:55 | 23.30306 | 38.42020 | 37911 ft | 484 kts | 329° |
| 2026-05-08 06:55 | 23.36549 | 38.39226 | 37909 ft | 485 kts | 329° |
| 2026-05-08 06:56 | 23.42760 | 38.36441 | 37924 ft | 486 kts | 329° |
| 2026-05-08 06:56 | 23.49027 | 38.33629 | 37923 ft | 487 kts | 329° |
| 2026-05-08 06:57 | 23.55289 | 38.30819 | 37917 ft | 485 kts | 329° |
| 2026-05-08 06:57 | 23.61519 | 38.28016 | 37911 ft | 483 kts | 329° |
| 2026-05-08 06:58 | 23.67727 | 38.25221 | 37913 ft | 484 kts | 329° |
| 2026-05-08 06:58 | 23.73964 | 38.22410 | 37914 ft | 485 kts | 329° |
| 2026-05-08 06:59 | 23.80225 | 38.19583 | 37917 ft | 490 kts | 329° |
| 2026-05-08 06:59 | 23.86531 | 38.16739 | 37917 ft | 488 kts | 330° |
| 2026-05-08 07:00 | 23.92777 | 38.13913 | 37869 ft | 485 kts | 330° |
| 2026-05-08 07:00 | 23.99011 | 38.11091 | 37844 ft | 485 kts | 330° |
| 2026-05-08 07:01 | 24.05261 | 38.08260 | 37842 ft | 486 kts | 330° |
| 2026-05-08 07:01 | 24.11529 | 38.05415 | 37833 ft | 488 kts | 330° |
| 2026-05-08 07:02 | 24.17446 | 38.01996 | 37840 ft | 475 kts | 318° |
| 2026-05-08 07:02 | 24.22908 | 37.97906 | 37835 ft | 476 kts | 318° |
| 2026-05-08 07:03 | 24.28337 | 37.93832 | 37841 ft | 477 kts | 318° |
| 2026-05-08 07:03 | 24.33826 | 37.89714 | 37849 ft | 478 kts | 318° |
| 2026-05-08 07:04 | 24.39330 | 37.85575 | 37854 ft | 480 kts | 318° |
| 2026-05-08 07:04 | 24.44841 | 37.81432 | 37860 ft | 480 kts | 318° |
| 2026-05-08 07:05 | 24.50346 | 37.77285 | 37873 ft | 479 kts | 318° |
| 2026-05-08 07:05 | 24.55833 | 37.73149 | 37870 ft | 478 kts | 318° |
| 2026-05-08 07:06 | 24.61308 | 37.69016 | 37892 ft | 474 kts | 319° |
| 2026-05-08 07:06 | 24.66715 | 37.64932 | 37925 ft | 470 kts | 319° |
| 2026-05-08 07:07 | 24.72122 | 37.60839 | 37887 ft | 472 kts | 320° |
| 2026-05-08 07:07 | 24.77486 | 37.56781 | 37896 ft | 471 kts | 320° |
| 2026-05-08 07:08 | 24.82877 | 37.52691 | 37896 ft | 471 kts | 320° |
| 2026-05-08 07:08 | 24.88299 | 37.48578 | 37918 ft | 474 kts | 320° |
| 2026-05-08 07:09 | 24.93710 | 37.44469 | 37923 ft | 468 kts | 320° |
| 2026-05-08 07:09 | 24.99034 | 37.40420 | 37959 ft | 463 kts | 320° |
| 2026-05-08 07:10 | 25.04334 | 37.36384 | 37913 ft | 462 kts | 321° |
| 2026-05-08 07:10 | 25.09603 | 37.32368 | 37919 ft | 463 kts | 321° |
| 2026-05-08 07:11 | 25.14907 | 37.28322 | 37932 ft | 463 kts | 321° |
| 2026-05-08 07:11 | 25.20210 | 37.24272 | 37938 ft | 463 kts | 321° |
| 2026-05-08 07:12 | 25.25488 | 37.20238 | 37938 ft | 456 kts | 322° |
| 2026-05-08 07:12 | 25.30682 | 37.16261 | 37930 ft | 452 kts | 321° |
| 2026-05-08 07:13 | 25.35870 | 37.12284 | 37921 ft | 455 kts | 321° |
| 2026-05-08 07:13 | 25.41093 | 37.08278 | 37928 ft | 458 kts | 321° |
| 2026-05-08 07:14 | 25.46293 | 37.04284 | 37931 ft | 456 kts | 321° |
| 2026-05-08 07:14 | 25.51490 | 37.00288 | 37916 ft | 454 kts | 321° |
| 2026-05-08 07:15 | 25.56653 | 36.96315 | 37919 ft | 447 kts | 322° |
| 2026-05-08 07:15 | 25.61743 | 36.92391 | 37922 ft | 445 kts | 322° |
| 2026-05-08 07:16 | 25.66855 | 36.88447 | 37921 ft | 450 kts | 322° |
| 2026-05-08 07:16 | 25.72015 | 36.84464 | 37927 ft | 451 kts | 322° |
| 2026-05-08 07:17 | 25.77144 | 36.80499 | 37924 ft | 451 kts | 322° |
| 2026-05-08 07:17 | 25.82281 | 36.76524 | 37924 ft | 449 kts | 322° |
| 2026-05-08 07:18 | 25.87399 | 36.72558 | 37928 ft | 446 kts | 322° |
| 2026-05-08 07:18 | 25.92461 | 36.68632 | 37919 ft | 443 kts | 322° |
| 2026-05-08 07:19 | 25.96671 | 36.65363 | 37909 ft | 445 kts | 322° |
| 2026-05-08 07:19 | 26.01779 | 36.61394 | 37916 ft | 448 kts | 322° |
| 2026-05-08 07:20 | 26.06896 | 36.57413 | 37921 ft | 448 kts | 322° |
| 2026-05-08 07:20 | 26.12007 | 36.53434 | 37920 ft | 448 kts | 322° |
| 2026-05-08 07:21 | 26.17576 | 36.50286 | 37944 ft | 454 kts | 339° |
| 2026-05-08 07:21 | 26.23790 | 36.49173 | 37935 ft | 457 kts | 356° |
| 2026-05-08 07:22 | 26.30157 | 36.49474 | 37914 ft | 458 kts | 358° |
| 2026-05-08 07:22 | 26.36548 | 36.49833 | 37919 ft | 461 kts | 358° |
| 2026-05-08 07:23 | 26.42972 | 36.50183 | 37913 ft | 462 kts | 358° |
| 2026-05-08 07:23 | 26.49451 | 36.50538 | 37940 ft | 469 kts | 358° |
| 2026-05-08 07:24 | 26.55991 | 36.50901 | 37920 ft | 471 kts | 358° |
| 2026-05-08 07:24 | 26.62537 | 36.51260 | 37915 ft | 469 kts | 358° |
| 2026-05-08 07:25 | 26.69049 | 36.51620 | 37917 ft | 468 kts | 358° |
| 2026-05-08 07:26 | 26.78801 | 36.52158 | 37921 ft | 470 kts | 358° |
| 2026-05-08 07:26 | 26.85305 | 36.52518 | 37930 ft | 471 kts | 358° |
| 2026-05-08 07:27 | 26.91857 | 36.52881 | 37931 ft | 471 kts | 358° |
| 2026-05-08 07:27 | 26.98417 | 36.53245 | 37931 ft | 471 kts | 358° |
| 2026-05-08 07:28 | 27.04981 | 36.53610 | 37923 ft | 472 kts | 359° |
| 2026-05-08 07:28 | 27.11542 | 36.53974 | 37926 ft | 472 kts | 358° |
| 2026-05-08 07:29 | 27.18069 | 36.54338 | 37934 ft | 472 kts | 358° |
| 2026-05-08 07:29 | 27.24643 | 36.54706 | 37935 ft | 473 kts | 359° |
| 2026-05-08 07:30 | 27.31225 | 36.55074 | 37946 ft | 473 kts | 359° |
| 2026-05-08 07:30 | 27.37813 | 36.55443 | 37948 ft | 473 kts | 359° |
| 2026-05-08 07:31 | 27.44404 | 36.55813 | 37961 ft | 474 kts | 359° |
| 2026-05-08 07:31 | 27.50980 | 36.56183 | 37972 ft | 472 kts | 359° |
| 2026-05-08 07:32 | 27.57495 | 36.56548 | 37966 ft | 472 kts | 359° |
| 2026-05-08 07:32 | 27.64058 | 36.56918 | 37987 ft | 471 kts | 359° |
| 2026-05-08 07:33 | 27.70595 | 36.57286 | 38010 ft | 471 kts | 359° |
| 2026-05-08 07:33 | 27.77158 | 36.57657 | 38011 ft | 471 kts | 359° |
| 2026-05-08 07:34 | 27.83714 | 36.58028 | 38022 ft | 470 kts | 359° |
| 2026-05-08 07:34 | 27.90243 | 36.58397 | 38030 ft | 470 kts | 359° |
| 2026-05-08 07:35 | 27.96789 | 36.58767 | 38028 ft | 472 kts | 359° |
| 2026-05-08 07:35 | 28.03359 | 36.59140 | 38035 ft | 473 kts | 359° |
| 2026-05-08 07:36 | 28.09928 | 36.59513 | 38043 ft | 473 kts | 359° |
| 2026-05-08 07:36 | 28.16509 | 36.59887 | 38069 ft | 473 kts | 359° |
| 2026-05-08 07:37 | 28.23082 | 36.60261 | 38065 ft | 473 kts | 359° |
| 2026-05-08 07:37 | 28.29650 | 36.60636 | 38043 ft | 473 kts | 359° |
| 2026-05-08 07:38 | 28.36229 | 36.60928 | 38045 ft | 469 kts | 352° |
| 2026-05-08 07:38 | 28.42668 | 36.59935 | 38062 ft | 467 kts | 348° |
| 2026-05-08 07:39 | 28.49097 | 36.58770 | 38054 ft | 469 kts | 348° |
| 2026-05-08 07:39 | 28.55502 | 36.57639 | 38051 ft | 469 kts | 348° |
| 2026-05-08 07:40 | 28.61963 | 36.56479 | 38038 ft | 469 kts | 348° |
| 2026-05-08 07:40 | 28.68405 | 36.55325 | 38022 ft | 468 kts | 348° |
| 2026-05-08 07:41 | 28.74836 | 36.54170 | 38022 ft | 467 kts | 348° |
| 2026-05-08 07:41 | 28.81245 | 36.53018 | 38016 ft | 465 kts | 348° |
| 2026-05-08 07:42 | 28.87634 | 36.51867 | 38017 ft | 466 kts | 348° |
| 2026-05-08 07:42 | 28.94070 | 36.50707 | 38032 ft | 468 kts | 348° |
| 2026-05-08 07:43 | 29.00510 | 36.49545 | 38033 ft | 467 kts | 348° |
| 2026-05-08 07:43 | 29.06880 | 36.48395 | 38014 ft | 461 kts | 348° |
| 2026-05-08 07:44 | 29.13219 | 36.47248 | 38022 ft | 461 kts | 348° |
| 2026-05-08 07:44 | 29.19560 | 36.46104 | 38033 ft | 462 kts | 348° |
| 2026-05-08 07:45 | 29.25887 | 36.44959 | 38035 ft | 462 kts | 348° |
| 2026-05-08 07:45 | 29.32277 | 36.43803 | 38040 ft | 462 kts | 348° |
| 2026-05-08 07:46 | 29.38587 | 36.42658 | 38037 ft | 461 kts | 348° |
| 2026-05-08 07:46 | 29.44928 | 36.41507 | 38035 ft | 460 kts | 348° |
| 2026-05-08 07:47 | 29.51252 | 36.40367 | 38028 ft | 459 kts | 348° |
| 2026-05-08 07:47 | 29.57576 | 36.39224 | 38031 ft | 460 kts | 348° |
| 2026-05-08 07:48 | 29.63873 | 36.38086 | 38035 ft | 451 kts | 348° |
| 2026-05-08 07:48 | 29.69993 | 36.36976 | 38023 ft | 445 kts | 347° |
| 2026-05-08 07:49 | 29.76088 | 36.35717 | 38051 ft | 452 kts | 348° |
| 2026-05-08 07:49 | 29.82350 | 36.34456 | 38055 ft | 460 kts | 347° |
| 2026-05-08 07:50 | 29.88667 | 36.33142 | 38077 ft | 462 kts | 347° |
| 2026-05-08 07:50 | 29.94980 | 36.31854 | 38065 ft | 459 kts | 347° |
| 2026-05-08 07:51 | 30.01257 | 36.30554 | 38058 ft | 458 kts | 347° |
| 2026-05-08 07:51 | 30.07534 | 36.29263 | 38056 ft | 458 kts | 347° |
| 2026-05-08 07:52 | 30.13811 | 36.27965 | 38072 ft | 458 kts | 347° |
| 2026-05-08 07:52 | 30.20102 | 36.26665 | 38057 ft | 459 kts | 347° |
| 2026-05-08 07:53 | 30.26414 | 36.25428 | 38067 ft | 460 kts | 348° |
| 2026-05-08 07:53 | 30.32719 | 36.24198 | 38069 ft | 456 kts | 347° |
| 2026-05-08 07:54 | 30.38926 | 36.22975 | 38058 ft | 451 kts | 348° |
| 2026-05-08 07:54 | 30.45122 | 36.21760 | 38068 ft | 452 kts | 348° |
| 2026-05-08 07:55 | 30.51347 | 36.20533 | 38066 ft | 455 kts | 348° |
| 2026-05-08 07:55 | 30.57595 | 36.19304 | 38081 ft | 454 kts | 348° |
| 2026-05-08 07:56 | 30.63821 | 36.18076 | 37891 ft | 451 kts | 348° |
| 2026-05-08 07:56 | 30.66880 | 36.17472 | 37305 ft | 451 kts | 348° |
| 2026-05-08 07:56 | 30.69965 | 36.16862 | 36790 ft | 450 kts | 348° |
| 2026-05-08 07:56 | 30.73054 | 36.16251 | 36259 ft | 450 kts | 348° |
| 2026-05-08 07:57 | 30.76141 | 36.15640 | 35719 ft | 451 kts | 348° |
| 2026-05-08 07:57 | 30.79248 | 36.15025 | 35174 ft | 454 kts | 348° |
| 2026-05-08 07:57 | 30.82376 | 36.14437 | 34608 ft | 460 kts | 353° |
| 2026-05-08 07:57 | 30.85612 | 36.14339 | 34022 ft | 468 kts | 358° |
| 2026-05-08 07:58 | 30.88892 | 36.14380 | 33380 ft | 473 kts | 358° |
| 2026-05-08 07:58 | 30.92193 | 36.14449 | 32752 ft | 476 kts | 359° |
| 2026-05-08 07:58 | 30.95518 | 36.14510 | 32098 ft | 478 kts | 358° |
| 2026-05-08 07:58 | 30.98844 | 36.14555 | 31437 ft | 480 kts | 358° |
| 2026-05-08 07:59 | 31.02201 | 36.14601 | 30747 ft | 482 kts | 358° |
| 2026-05-08 07:59 | 31.05571 | 36.14658 | 30001 ft | 485 kts | 358° |
| 2026-05-08 07:59 | 31.08954 | 36.14716 | 29275 ft | 485 kts | 358° |
| 2026-05-08 07:59 | 31.12326 | 36.14768 | 28558 ft | 485 kts | 358° |
| 2026-05-08 08:00 | 31.15698 | 36.14819 | 27839 ft | 483 kts | 358° |
| 2026-05-08 08:00 | 31.19058 | 36.14873 | 27138 ft | 482 kts | 359° |
| 2026-05-08 08:00 | 31.22366 | 36.14927 | 26447 ft | 482 kts | 359° |
| 2026-05-08 08:00 | 31.25721 | 36.14980 | 25753 ft | 481 kts | 359° |
| 2026-05-08 08:01 | 31.29056 | 36.15032 | 25063 ft | 480 kts | 359° |
| 2026-05-08 08:01 | 31.32394 | 36.15085 | 24378 ft | 479 kts | 359° |
| 2026-05-08 08:01 | 31.35730 | 36.15139 | 23686 ft | 479 kts | 359° |
| 2026-05-08 08:01 | 31.37931 | 36.15174 | 23183 ft | 477 kts | 359° |
| 2026-05-08 08:02 | 31.41247 | 36.15227 | 22514 ft | 474 kts | 359° |
| 2026-05-08 08:02 | 31.44531 | 36.15279 | 21844 ft | 470 kts | 359° |
| 2026-05-08 08:02 | 31.47786 | 36.15331 | 21188 ft | 467 kts | 359° |
| 2026-05-08 08:02 | 31.51024 | 36.15383 | 20534 ft | 464 kts | 359° |
| 2026-05-08 08:03 | 31.54242 | 36.15434 | 19891 ft | 460 kts | 359° |
| 2026-05-08 08:03 | 31.57432 | 36.15485 | 19247 ft | 458 kts | 359° |
| 2026-05-08 08:03 | 31.60613 | 36.15536 | 18608 ft | 455 kts | 359° |
| 2026-05-08 08:03 | 31.63766 | 36.15585 | 17935 ft | 451 kts | 359° |
| 2026-05-08 08:04 | 31.66858 | 36.15255 | 17381 ft | 443 kts | 347° |
| 2026-05-08 08:04 | 31.69772 | 36.14238 | 16696 ft | 437 kts | 336° |
| 2026-05-08 08:04 | 31.72434 | 36.12534 | 16041 ft | 433 kts | 325° |
| 2026-05-08 08:04 | 31.74725 | 36.10291 | 15448 ft | 427 kts | 314° |
| 2026-05-08 08:05 | 31.76583 | 36.07602 | 14873 ft | 423 kts | 303° |
| 2026-05-08 08:05 | 31.77959 | 36.04569 | 14279 ft | 418 kts | 293° |
| 2026-05-08 08:05 | 31.79072 | 36.01441 | 13665 ft | 414 kts | 293° |
| 2026-05-08 08:05 | 31.80181 | 35.98323 | 13102 ft | 408 kts | 292° |
| 2026-05-08 08:06 | 31.81258 | 35.95270 | 12545 ft | 403 kts | 292° |
| 2026-05-08 08:06 | 31.82327 | 35.92249 | 11991 ft | 398 kts | 292° |
| 2026-05-08 08:06 | 31.83390 | 35.89257 | 11461 ft | 393 kts | 292° |
| 2026-05-08 08:06 | 31.84423 | 35.86340 | 11242 ft | 379 kts | 291° |
| 2026-05-08 08:07 | 31.85415 | 35.83533 | 11100 ft | 365 kts | 291° |
| 2026-05-08 08:07 | 31.86370 | 35.80827 | 10953 ft | 351 kts | 291° |
| 2026-05-08 08:07 | 31.87290 | 35.78221 | 10791 ft | 338 kts | 291° |
| 2026-05-08 08:07 | 31.88175 | 35.75712 | 10661 ft | 326 kts | 291° |
| 2026-05-08 08:08 | 31.89030 | 35.73288 | 10521 ft | 314 kts | 291° |
| 2026-05-08 08:08 | 31.89854 | 35.70944 | 10281 ft | 307 kts | 291° |
| 2026-05-08 08:08 | 31.90663 | 35.68646 | 10008 ft | 301 kts | 290° |
| 2026-05-08 08:08 | 31.91457 | 35.66387 | 9721 ft | 296 kts | 290° |
| 2026-05-08 08:09 | 31.92237 | 35.64168 | 9436 ft | 289 kts | 290° |
| 2026-05-08 08:09 | 31.92953 | 35.61994 | 9152 ft | 281 kts | 281° |
| 2026-05-08 08:09 | 31.93053 | 35.59752 | 8914 ft | 269 kts | 267° |
| 2026-05-08 08:09 | 31.93129 | 35.57546 | 8664 ft | 271 kts | 271° |
| 2026-05-08 08:10 | 31.93234 | 35.55321 | 8418 ft | 274 kts | 270° |
| 2026-05-08 08:10 | 31.93294 | 35.53081 | 8174 ft | 272 kts | 269° |
| 2026-05-08 08:10 | 31.93543 | 35.50909 | 7949 ft | 270 kts | 290° |
| 2026-05-08 08:10 | 31.94233 | 35.48899 | 8035 ft | 271 kts | 285° |
| 2026-05-08 08:11 | 31.94785 | 35.46713 | 8050 ft | 278 kts | 284° |
| 2026-05-08 08:11 | 31.95368 | 35.44544 | 8039 ft | 278 kts | 287° |
| 2026-05-08 08:11 | 31.96006 | 35.42390 | 8037 ft | 278 kts | 287° |
| 2026-05-08 08:11 | 31.96633 | 35.40264 | 8034 ft | 278 kts | 287° |
| 2026-05-08 08:12 | 31.97246 | 35.38133 | 7857 ft | 274 kts | 287° |
| 2026-05-08 08:12 | 31.97857 | 35.35994 | 7396 ft | 277 kts | 287° |
| 2026-05-08 08:12 | 31.98475 | 35.33846 | 7054 ft | 276 kts | 287° |
| 2026-05-08 08:12 | 31.99093 | 35.31699 | 6679 ft | 276 kts | 287° |
| 2026-05-08 08:13 | 31.99710 | 35.29559 | 6288 ft | 276 kts | 287° |
| 2026-05-08 08:13 | 32.00320 | 35.27427 | 5987 ft | 273 kts | 287° |
| 2026-05-08 08:13 | 32.00840 | 35.25291 | 5613 ft | 269 kts | 272° |
| 2026-05-08 08:13 | 32.00637 | 35.23138 | 5479 ft | 263 kts | 259° |
| 2026-05-08 08:14 | 32.00403 | 35.20979 | 5327 ft | 266 kts | 262° |
| 2026-05-08 08:14 | 31.99972 | 35.18885 | 5110 ft | 263 kts | 237° |
| 2026-05-08 08:14 | 31.98796 | 35.17273 | 4969 ft | 259 kts | 211° |
| 2026-05-08 08:14 | 31.97154 | 35.16483 | 4853 ft | 258 kts | 187° |
| 2026-05-08 08:15 | 31.95369 | 35.16462 | 4704 ft | 257 kts | 180° |
| 2026-05-08 08:15 | 31.93690 | 35.16018 | 4477 ft | 245 kts | 200° |
| 2026-05-08 08:15 | 31.92059 | 35.15445 | 4311 ft | 248 kts | 194° |
| 2026-05-08 08:15 | 31.90564 | 35.14447 | 4033 ft | 253 kts | 230° |
| 2026-05-08 08:16 | 31.89754 | 35.12667 | 3827 ft | 244 kts | 259° |
| 2026-05-08 08:16 | 31.89680 | 35.10686 | 3783 ft | 241 kts | 271° |
| 2026-05-08 08:16 | 31.89908 | 35.08743 | 3592 ft | 244 kts | 296° |
| 2026-05-08 08:16 | 31.90791 | 35.07078 | 3243 ft | 232 kts | 301° |
| 2026-05-08 08:17 | 31.91544 | 35.05563 | 3316 ft | 198 kts | 302° |
| 2026-05-08 08:17 | 31.92238 | 35.04260 | 3175 ft | 180 kts | 303° |
| 2026-05-08 08:17 | 31.92863 | 35.03058 | 2905 ft | 164 kts | 302° |
| 2026-05-08 08:17 | 31.93453 | 35.01923 | 2703 ft | 162 kts | 303° |
| 2026-05-08 08:18 | 31.94045 | 35.00790 | 2467 ft | 163 kts | 303° |
| 2026-05-08 08:18 | 31.94639 | 34.99658 | 2247 ft | 162 kts | 302° |
| 2026-05-08 08:18 | 31.95214 | 34.98541 | 2008 ft | 158 kts | 303° |
| 2026-05-08 08:18 | 31.95808 | 34.97447 | 1790 ft | 161 kts | 304° |
| 2026-05-08 08:19 | 31.96388 | 34.96322 | 1552 ft | 158 kts | 302° |
| 2026-05-08 08:19 | 31.96955 | 34.95221 | 1333 ft | 158 kts | 302° |
| 2026-05-08 08:19 | 31.97540 | 34.94111 | 1044 ft | 158 kts | 304° |
| 2026-05-08 08:19 | 31.98092 | 34.93033 | 809 ft | 151 kts | 304° |
| 2026-05-08 08:20 | 31.98647 | 34.91979 | 655 ft | 151 kts | 304° |
| 2026-05-08 08:20 | 31.99218 | 34.90916 | 421 ft | 158 kts | 305° |
| 2026-05-08 08:20 | 31.99803 | 34.89806 | 228 ft | 155 kts | 303° |
| 2026-05-08 08:20 | 32.00296 | 34.88856 | 124 ft | 104 kts | 300° |
| 2026-05-08 08:21 | 32.00551 | 34.88361 | 122 ft | 48 kts | 302° |
| 2026-05-08 08:21 | 32.00712 | 34.88052 | 121 ft | 42 kts | 300° |
| 2026-05-08 08:21 | 32.00854 | 34.87773 | 123 ft | 38 kts | 301° |
| 2026-05-08 08:21 | 32.00986 | 34.87519 | 123 ft | 35 kts | 301° |
| 2026-05-08 08:22 | 32.01057 | 34.87285 | 123 ft | 26 kts | 280° |
| 2026-05-08 08:22 | 32.01066 | 34.87093 | 125 ft | 19 kts | 271° |
| 2026-05-08 08:22 | 32.01059 | 34.86979 | 125 ft | 12 kts | 252° |
| 2026-05-08 08:22 | 32.01009 | 34.86929 | 124 ft | 8 kts | 181° |
| 2026-05-08 08:23 | 32.00975 | 34.86959 | 121 ft | 6 kts | 125° |
| 2026-05-08 08:23 | 32.00945 | 34.87010 | 121 ft | 10 kts | 124° |
| 2026-05-08 08:23 | 32.00898 | 34.87099 | 120 ft | 16 kts | 121° |
| 2026-05-08 08:23 | 32.00833 | 34.87225 | 121 ft | 18 kts | 121° |
| 2026-05-08 08:24 | 32.00768 | 34.87351 | 122 ft | 18 kts | 121° |
| 2026-05-08 08:24 | 32.00706 | 34.87472 | 124 ft | 17 kts | 121° |
| 2026-05-08 08:24 | 32.00648 | 34.87584 | 123 ft | 12 kts | 121° |
| 2026-05-08 08:24 | 32.00609 | 34.87650 | 122 ft | 9 kts | 136° |
| 2026-05-08 08:25 | 32.00554 | 34.87677 | 123 ft | 8 kts | 162° |
| 2026-05-08 08:25 | 32.00501 | 34.87693 | 121 ft | 7 kts | 177° |
| 2026-05-08 08:25 | 32.00461 | 34.87678 | 122 ft | 6 kts | 209° |
| 2026-05-08 08:25 | 32.00437 | 34.87648 | 120 ft | 5 kts | 235° |
| 2026-05-08 08:26 | 32.00430 | 34.87635 | 121 ft | 0 kts | 237° |
| 2026-05-08 08:26 | 32.00426 | 34.87628 | 121 ft | 1 kts | 237° |
| 2026-05-08 08:26 | 32.00422 | 34.87621 | 122 ft | 1 kts | 237° |
| 2026-05-08 08:26 | 32.00419 | 34.87615 | 125 ft | 0 kts | 237° |
| 2026-05-08 08:27 | 32.00419 | 34.87614 | 125 ft | 0 kts | 237° |